Time;durP1;ratioP1;P1;durP2;ratioP2;P2;SDS_P1;SDS_P2;PMS_P1;PMS_P2;Temp;Humidity;BMP_temperature;BMP_pressure;BME280_temperature;BME280_humidity;BME280_pressure;Samples;Min_cycle;Max_cycle;Signal;HPM_P1;HPM_P2
2022/04/06 00:01:31;;;;;;;;;;;23.30;31.20;;;;;;4968492;28;19948;-68
2022/04/06 00:03:58;;;;;;;;;;;23.30;31.20;;;;;;4968380;28;20146;-68
2022/04/06 00:06:25;;;;;;;;;;;23.30;31.20;;;;;;4967766;28;20031;-69
2022/04/06 00:09:12;;;;;;;;;;;23.40;31.20;;;;;;4968065;28;20027;-69
2022/04/06 00:11:39;;;;;;;;;;;23.30;31.20;;;;;;4968178;28;19930;-69
2022/04/06 00:14:06;;;;;;;;;;;23.30;31.10;;;;;;4968185;28;19930;-69
2022/04/06 00:16:33;;;;;;;;;;;23.30;31.20;;;;;;5034499;28;19948;-69
2022/04/06 00:19:00;;;;;;;;;;;23.30;31.10;;;;;;4967644;28;19973;-69
2022/04/06 00:21:27;;;;;;;;;;;23.30;31.10;;;;;;5033689;28;19926;-69
2022/04/06 00:23:56;;;;;;;;;;;23.30;31.10;;;;;;5029649;28;19926;-69
2022/04/06 00:26:24;;;;;;;;;;;23.30;31.10;;;;;;4968155;28;19999;-69
2022/04/06 00:28:51;;;;;;;;;;;23.40;31.20;;;;;;5033863;28;19983;-69
2022/04/06 00:31:18;;;;;;;;;;;23.30;31.10;;;;;;4968070;28;19995;-69
2022/04/06 00:33:45;;;;;;;;;;;23.30;31.10;;;;;;4967733;28;20434;-69
2022/04/06 00:36:12;;;;;;;;;;;23.30;31.10;;;;;;4968048;28;20078;-69
2022/04/06 00:38:39;;;;;;;;;;;23.30;31.10;;;;;;4967668;28;19933;-69
2022/04/06 00:41:06;;;;;;;;;;;23.30;31.10;;;;;;4967313;28;19926;-69
2022/04/06 00:43:33;;;;;;;;;;;23.30;31.10;;;;;;5033493;28;19994;-69
2022/04/06 00:46:00;;;;;;;;;;;23.30;31.20;;;;;;4967655;28;20272;-69
2022/04/06 00:48:28;;;;;;;;;;;23.30;31.20;;;;;;4967878;28;19926;-69
2022/04/06 00:50:55;;;;;;;;;;;23.30;31.20;;;;;;4967094;28;19933;-69
2022/04/06 00:53:23;;;;;;;;;;;23.30;31.20;;;;;;4967928;28;19968;-69
2022/04/06 00:55:51;;;;;;;;;;;23.30;31.20;;;;;;4963082;28;19973;-69
2022/04/06 00:58:18;;;;;;;;;;;23.30;31.20;;;;;;4967709;28;19926;-69
2022/04/06 01:00:44;;;;;;;;;;;23.20;31.20;;;;;;4967551;28;19930;-69
2022/04/06 01:03:12;;;;;;;;;;;23.20;31.20;;;;;;4967480;28;19969;-68
2022/04/06 01:05:39;;;;;;;;;;;23.30;31.20;;;;;;4966588;28;20000;-69
2022/04/06 01:08:06;;;;;;;;;;;23.20;31.20;;;;;;4967750;28;19930;-69
2022/04/06 01:10:33;;;;;;;;;;;23.20;31.20;;;;;;4967898;28;19925;-68
2022/04/06 01:13:00;;;;;;;;;;;23.20;31.20;;;;;;4966790;28;19934;-68
2022/04/06 01:15:28;;;;;;;;;;;23.20;31.20;;;;;;4967894;28;19930;-69
2022/04/06 01:17:55;;;;;;;;;;;23.20;31.20;;;;;;4967358;28;20290;-69
2022/04/06 01:20:22;;;;;;;;;;;23.20;31.20;;;;;;4967347;28;19999;-69
2022/04/06 01:22:48;;;;;;;;;;;23.20;31.20;;;;;;5033329;28;19991;-69
2022/04/06 01:25:15;;;;;;;;;;;23.20;31.20;;;;;;4965223;28;19930;-69
2022/04/06 01:27:42;;;;;;;;;;;23.20;31.20;;;;;;4964260;28;19931;-69
2022/04/06 01:30:09;;;;;;;;;;;23.20;31.20;;;;;;4966851;28;19978;-69
2022/04/06 01:32:37;;;;;;;;;;;23.20;31.20;;;;;;4969573;28;19926;-69
2022/04/06 01:35:05;;;;;;;;;;;23.20;31.20;;;;;;4970211;28;19987;-68
2022/04/06 01:37:34;;;;;;;;;;;23.20;31.20;;;;;;4970457;28;19933;-69
2022/04/06 01:40:03;;;;;;;;;;;23.20;31.20;;;;;;4970377;28;20216;-68
2022/04/06 01:42:31;;;;;;;;;;;23.20;31.30;;;;;;4970646;28;19938;-69
2022/04/06 01:44:58;;;;;;;;;;;23.20;31.20;;;;;;4969798;28;19930;-69
2022/04/06 01:47:25;;;;;;;;;;;23.20;31.30;;;;;;4970430;28;20377;-69
2022/04/06 01:52:39;;;;;;;;;;;23.20;31.30;;;;;;4970579;28;20549;-69
2022/04/06 01:55:07;;;;;;;;;;;23.20;31.30;;;;;;4970109;28;19930;-69
2022/04/06 01:57:35;;;;;;;;;;;23.20;31.30;;;;;;4965972;28;19926;-69
2022/04/06 02:00:06;;;;;;;;;;;23.20;31.30;;;;;;4970005;28;20386;-68
2022/04/06 02:02:33;;;;;;;;;;;23.20;31.30;;;;;;4969707;28;19930;-69
2022/04/06 02:05:00;;;;;;;;;;;23.20;31.30;;;;;;4970002;28;19933;-69
2022/04/06 02:07:27;;;;;;;;;;;23.20;31.20;;;;;;5036055;28;19926;-69
2022/04/06 02:09:58;;;;;;;;;;;23.20;31.20;;;;;;4970004;28;19980;-69
2022/04/06 02:12:25;;;;;;;;;;;23.20;31.20;;;;;;4970466;28;20032;-69
2022/04/06 02:14:53;;;;;;;;;;;23.20;31.20;;;;;;4970030;28;19987;-69
2022/04/06 02:17:20;;;;;;;;;;;23.20;31.20;;;;;;4970033;28;19979;-68
2022/04/06 02:19:47;;;;;;;;;;;23.20;31.20;;;;;;4969391;28;19926;-68
2022/04/06 02:22:14;;;;;;;;;;;23.20;31.20;;;;;;4969956;28;20080;-69
2022/04/06 02:24:41;;;;;;;;;;;23.20;31.20;;;;;;4970303;28;20011;-69
2022/04/06 02:27:08;;;;;;;;;;;23.20;31.30;;;;;;4969369;28;19969;-69
2022/04/06 02:29:36;;;;;;;;;;;23.10;31.20;;;;;;4965520;28;19926;-69
2022/04/06 02:32:04;;;;;;;;;;;23.10;31.20;;;;;;4969423;28;19930;-69
2022/04/06 02:34:31;;;;;;;;;;;23.10;31.20;;;;;;4969221;28;19941;-69
2022/04/06 02:36:58;;;;;;;;;;;23.20;31.30;;;;;;4969245;28;20011;-69
2022/04/06 02:39:25;;;;;;;;;;;23.20;31.30;;;;;;4969517;28;19926;-69
2022/04/06 02:41:53;;;;;;;;;;;23.10;31.30;;;;;;4969213;28;19926;-69
2022/04/06 02:44:20;;;;;;;;;;;23.10;31.30;;;;;;4969670;28;19926;-69
2022/04/06 02:46:48;;;;;;;;;;;23.10;31.30;;;;;;4969218;28;19965;-69
2022/04/06 02:49:15;;;;;;;;;;;23.10;31.30;;;;;;4969575;28;19972;-69
2022/04/06 02:51:42;;;;;;;;;;;23.10;31.30;;;;;;5019001;28;19942;-69
2022/04/06 02:54:10;;;;;;;;;;;23.10;31.30;;;;;;4969321;28;20344;-69
2022/04/06 02:56:37;;;;;;;;;;;23.00;31.20;;;;;;4969311;28;19926;-69
2022/04/06 02:59:04;;;;;;;;;;;23.00;31.30;;;;;;5034631;28;19961;-68
2022/04/06 03:01:34;;;;;;;;;;;23.00;31.30;;;;;;4966176;28;20305;-69
2022/04/06 03:04:01;;;;;;;;;;;23.00;31.30;;;;;;4969599;28;19969;-69
2022/04/06 03:06:28;;;;;;;;;;;23.00;31.30;;;;;;5034953;28;19972;-69
2022/04/06 03:08:55;;;;;;;;;;;23.00;31.30;;;;;;4968711;28;20378;-69
2022/04/06 03:11:22;;;;;;;;;;;23.00;31.30;;;;;;4969536;28;19967;-69
2022/04/06 03:13:50;;;;;;;;;;;23.00;31.30;;;;;;4968757;28;20000;-69
2022/04/06 03:16:17;;;;;;;;;;;23.00;31.30;;;;;;5034284;28;20013;-68
2022/04/06 03:18:44;;;;;;;;;;;23.00;31.30;;;;;;5034982;28;19977;-69
2022/04/06 03:21:11;;;;;;;;;;;23.00;31.30;;;;;;4968951;28;20275;-68
2022/04/06 03:23:38;;;;;;;;;;;23.00;31.30;;;;;;4968986;28;20385;-69
2022/04/06 03:26:06;;;;;;;;;;;23.00;31.30;;;;;;4968585;28;20416;-69
2022/04/06 03:28:32;;;;;;;;;;;23.00;31.30;;;;;;4968425;28;20447;-69
2022/04/06 03:31:00;;;;;;;;;;;23.00;31.30;;;;;;4965008;28;19926;-69
2022/04/06 03:33:27;;;;;;;;;;;23.00;31.30;;;;;;4968097;28;20246;-69
2022/04/06 03:35:54;;;;;;;;;;;23.00;31.30;;;;;;4963140;28;19995;-69
2022/04/06 03:38:21;;;;;;;;;;;23.00;31.30;;;;;;4954712;28;19981;-69
2022/04/06 03:40:48;;;;;;;;;;;23.00;31.30;;;;;;4966032;28;20169;-69
2022/04/06 03:43:15;;;;;;;;;;;23.00;31.40;;;;;;4950286;28;20221;-69
2022/04/06 03:45:42;;;;;;;;;;;23.00;31.40;;;;;;4961981;28;20438;-69
2022/04/06 03:48:09;;;;;;;;;;;23.00;31.40;;;;;;4949591;29;19926;-69
2022/04/06 03:50:36;;;;;;;;;;;23.00;31.40;;;;;;4961507;28;19926;-69
2022/04/06 03:53:03;;;;;;;;;;;23.00;31.40;;;;;;4935489;29;19927;-69
2022/04/06 03:55:30;;;;;;;;;;;23.00;31.40;;;;;;4961288;28;19970;-69
2022/04/06 03:57:57;;;;;;;;;;;23.00;31.40;;;;;;4967816;28;19930;-69
2022/04/06 04:00:29;;;;;;;;;;;23.00;31.40;;;;;;4973842;28;19927;-68
2022/04/06 04:02:56;;;;;;;;;;;23.00;31.40;;;;;;4949215;28;20384;-69
2022/04/06 04:05:23;;;;;;;;;;;23.00;31.40;;;;;;4944582;28;19937;-69
2022/04/06 04:07:50;;;;;;;;;;;23.00;31.40;;;;;;4969631;28;19948;-69
2022/04/06 04:10:19;;;;;;;;;;;23.00;31.30;;;;;;4952433;28;19996;-70
2022/04/06 04:12:47;;;;;;;;;;;23.00;31.40;;;;;;4958949;28;20001;-69
2022/04/06 04:15:14;;;;;;;;;;;22.90;31.30;;;;;;4972830;28;19926;-69
2022/04/06 04:17:41;;;;;;;;;;;23.00;31.30;;;;;;4970776;28;19930;-68
2022/04/06 04:20:08;;;;;;;;;;;23.00;31.30;;;;;;4967437;28;19926;-66
2022/04/06 04:22:35;;;;;;;;;;;23.00;31.30;;;;;;4967927;28;19930;-69
2022/04/06 04:25:03;;;;;;;;;;;23.00;31.30;;;;;;4968315;28;20437;-69
2022/04/06 04:27:30;;;;;;;;;;;23.00;31.30;;;;;;4966611;28;20008;-69
2022/04/06 04:29:57;;;;;;;;;;;23.00;31.30;;;;;;4949005;29;19980;-69
2022/04/06 04:32:24;;;;;;;;;;;23.00;31.30;;;;;;4952559;28;19934;-69
2022/04/06 04:34:51;;;;;;;;;;;23.00;31.30;;;;;;4962927;28;20207;-68
2022/04/06 04:37:18;;;;;;;;;;;23.00;31.60;;;;;;4945198;29;19927;-68
2022/04/06 04:39:45;;;;;;;;;;;23.00;31.30;;;;;;4947358;29;20052;-68
2022/04/06 04:42:12;;;;;;;;;;;23.00;31.20;;;;;;4945109;28;19932;-68
2022/04/06 04:44:39;;;;;;;;;;;23.00;31.20;;;;;;5003369;28;19952;-68
2022/04/06 04:47:06;;;;;;;;;;;22.90;31.20;;;;;;4961093;28;20011;-68
2022/04/06 04:49:33;;;;;;;;;;;22.90;31.10;;;;;;4964053;28;19934;-68
2022/04/06 04:52:00;;;;;;;;;;;23.00;31.20;;;;;;5014195;28;20480;-68
2022/04/06 04:54:27;;;;;;;;;;;23.00;31.20;;;;;;4954251;28;19975;-68
2022/04/06 04:56:56;;;;;;;;;;;23.00;31.20;;;;;;4966826;28;19932;-68
2022/04/06 04:59:25;;;;;;;;;;;23.00;31.20;;;;;;4965688;28;20004;-69
2022/04/06 05:01:52;;;;;;;;;;;23.00;31.20;;;;;;4954066;28;19977;-68
2022/04/06 05:04:19;;;;;;;;;;;23.00;31.10;;;;;;4963007;28;20220;-68
2022/04/06 05:06:46;;;;;;;;;;;23.00;31.10;;;;;;4944799;28;20117;-68
2022/04/06 05:09:14;;;;;;;;;;;23.00;31.20;;;;;;4959287;28;19980;-68
2022/04/06 05:11:41;;;;;;;;;;;23.00;31.20;;;;;;4970385;28;19933;-70
2022/04/06 05:14:09;;;;;;;;;;;22.90;31.10;;;;;;4969890;28;19958;-70
2022/04/06 05:16:36;;;;;;;;;;;23.00;31.20;;;;;;4959774;28;20449;-65
2022/04/06 05:19:03;;;;;;;;;;;23.00;31.10;;;;;;4950767;28;19934;-70
2022/04/06 05:21:30;;;;;;;;;;;23.00;31.10;;;;;;4954715;28;20430;-70
2022/04/06 05:23:59;;;;;;;;;;;23.00;31.00;;;;;;4970169;28;19995;-70
2022/04/06 05:26:28;;;;;;;;;;;23.00;30.90;;;;;;4967834;28;21149;-70
2022/04/06 05:28:55;;;;;;;;;;;23.10;30.90;;;;;;4962212;28;19926;-70
2022/04/06 05:31:22;;;;;;;;;;;23.20;30.90;;;;;;4957345;28;20997;-68
2022/04/06 05:33:49;;;;;;;;;;;23.20;30.80;;;;;;4962690;28;19930;-67
2022/04/06 05:36:19;;;;;;;;;;;23.30;30.80;;;;;;4959160;28;19934;-66
2022/04/06 05:38:47;;;;;;;;;;;23.30;30.80;;;;;;4958735;28;20333;-66
2022/04/06 05:41:14;;;;;;;;;;;23.40;30.70;;;;;;4964310;28;20408;-70
2022/04/06 05:43:41;;;;;;;;;;;23.50;30.70;;;;;;4946906;28;20651;-65
2022/04/06 05:46:08;;;;;;;;;;;23.50;30.70;;;;;;4946340;28;20086;-68
2022/04/06 05:48:35;;;;;;;;;;;23.60;30.70;;;;;;4955633;28;20986;-63
2022/04/06 05:51:04;;;;;;;;;;;23.60;30.60;;;;;;4958895;28;20015;-67
2022/04/06 05:53:31;;;;;;;;;;;23.70;30.60;;;;;;4963417;28;19937;-67
2022/04/06 05:55:58;;;;;;;;;;;23.80;30.60;;;;;;4963019;28;20485;-68
2022/04/06 05:58:25;;;;;;;;;;;23.80;30.50;;;;;;4966539;28;19994;-69
2022/04/06 06:00:52;;;;;;;;;;;23.90;30.40;;;;;;4965567;28;20748;-64
2022/04/06 06:03:20;;;;;;;;;;;23.90;30.40;;;;;;4963818;28;19930;-68
2022/04/06 06:05:47;;;;;;;;;;;24.00;30.30;;;;;;4968539;28;19933;-68
2022/04/06 06:08:18;;;;;;;;;;;24.10;30.40;;;;;;4957903;28;20402;-69
2022/04/06 06:10:45;;;;;;;;;;;24.10;30.40;;;;;;4962528;28;20318;-70
2022/04/06 06:13:12;;;;;;;;;;;24.20;30.40;;;;;;4955727;28;19934;-65
2022/04/06 06:15:41;;;;;;;;;;;24.30;30.40;;;;;;4959122;28;19940;-66
2022/04/06 06:18:08;;;;;;;;;;;24.30;30.40;;;;;;4958559;28;20041;-70
2022/04/06 06:20:35;;;;;;;;;;;24.40;30.40;;;;;;4963870;28;20657;-66
2022/04/06 06:23:02;;;;;;;;;;;24.50;30.40;;;;;;4964757;28;19924;-69
2022/04/06 06:25:30;;;;;;;;;;;24.50;30.40;;;;;;4960756;28;20055;-69
2022/04/06 06:27:58;;;;;;;;;;;24.60;30.30;;;;;;4960798;28;20361;-65
2022/04/06 06:30:27;;;;;;;;;;;24.70;30.30;;;;;;4963152;28;22365;-71
2022/04/06 06:32:55;;;;;;;;;;;24.80;30.30;;;;;;4962451;28;19938;-73
2022/04/06 06:35:24;;;;;;;;;;;24.80;30.30;;;;;;4962294;28;19980;-71
2022/04/06 06:37:52;;;;;;;;;;;24.90;30.40;;;;;;4953444;28;20049;-70
2022/04/06 06:40:20;;;;;;;;;;;24.90;30.20;;;;;;4964790;28;20034;-71
2022/04/06 06:42:47;;;;;;;;;;;25.00;30.10;;;;;;4955316;28;19978;-70
2022/04/06 06:45:14;;;;;;;;;;;25.00;30.10;;;;;;4961202;28;19934;-75
2022/04/06 06:47:42;;;;;;;;;;;25.10;30.00;;;;;;4961196;28;19930;-72
2022/04/06 06:50:11;;;;;;;;;;;25.10;30.00;;;;;;4962478;28;20442;-73
2022/04/06 06:52:38;;;;;;;;;;;25.10;30.00;;;;;;4952984;28;19926;-71
2022/04/06 06:55:12;;;;;;;;;;;25.20;30.00;;;;;;4960596;28;19930;-68
2022/04/06 06:57:39;;;;;;;;;;;25.20;30.00;;;;;;4964006;28;19927;-70
2022/04/06 07:00:06;;;;;;;;;;;25.30;30.00;;;;;;4962438;28;20035;-74
2022/04/06 07:02:33;;;;;;;;;;;25.30;30.00;;;;;;4949403;28;19927;-74
2022/04/06 07:05:00;;;;;;;;;;;25.40;30.10;;;;;;4963853;28;19960;-70
2022/04/06 07:07:27;;;;;;;;;;;25.40;30.10;;;;;;4961991;28;20021;-75
2022/04/06 07:09:54;;;;;;;;;;;25.40;30.20;;;;;;4964332;28;19978;-70
2022/04/06 07:15:18;;;;;;;;;;;25.50;30.10;;;;;;4955743;28;19931;-73
2022/04/06 07:17:49;;;;;;;;;;;25.50;30.10;;;;;;4950769;28;19922;-74
2022/04/06 07:20:16;;;;;;;;;;;25.50;30.10;;;;;;4957257;28;20950;-73
2022/04/06 07:22:43;;;;;;;;;;;25.50;30.00;;;;;;4960105;28;19931;-69
2022/04/06 07:25:12;;;;;;;;;;;25.50;30.20;;;;;;4963550;28;20660;-71
2022/04/06 07:27:39;;;;;;;;;;;25.50;30.10;;;;;;4960795;28;19930;-76
2022/04/06 07:30:07;;;;;;;;;;;25.60;30.20;;;;;;4964931;28;19926;-72
2022/04/06 07:32:35;;;;;;;;;;;25.60;30.20;;;;;;4945546;28;20003;-72
2022/04/06 07:35:04;;;;;;;;;;;25.60;30.30;;;;;;4971403;28;20561;-72
2022/04/06 07:37:37;;;;;;;;;;;25.60;30.00;;;;;;4962661;28;19926;-72
2022/04/06 07:40:04;;;;;;;;;;;25.60;30.00;;;;;;4967097;28;20421;-68
2022/04/06 07:42:31;;;;;;;;;;;25.70;30.00;;;;;;4959012;28;20011;-71
2022/04/06 07:44:59;;;;;;;;;;;25.70;29.90;;;;;;4963641;28;20424;-74
2022/04/06 07:47:30;;;;;;;;;;;25.70;30.10;;;;;;4942576;28;19925;-77
2022/04/06 07:50:03;;;;;;;;;;;25.70;30.10;;;;;;4959424;28;20405;-75
2022/04/06 07:52:31;;;;;;;;;;;25.80;30.00;;;;;;4957640;28;20000;-77
2022/04/06 07:54:58;;;;;;;;;;;25.80;30.00;;;;;;4959171;28;19988;-67
2022/04/06 07:57:27;;;;;;;;;;;25.80;30.00;;;;;;4966794;28;19934;-74
2022/04/06 07:59:54;;;;;;;;;;;25.80;29.90;;;;;;4963362;28;20018;-70
2022/04/06 08:02:23;;;;;;;;;;;25.80;29.80;;;;;;4974031;28;19928;-76
2022/04/06 08:04:50;;;;;;;;;;;25.80;29.70;;;;;;4962155;28;19930;-73
2022/04/06 08:07:17;;;;;;;;;;;25.80;29.60;;;;;;4966702;28;20370;-68
2022/04/06 08:09:44;;;;;;;;;;;25.80;29.80;;;;;;4966546;28;19926;-73
2022/04/06 08:12:11;;;;;;;;;;;25.80;30.00;;;;;;4964117;28;19982;-73
2022/04/06 08:14:39;;;;;;;;;;;25.80;30.00;;;;;;4976299;28;19970;-72
2022/04/06 08:17:06;;;;;;;;;;;25.80;30.00;;;;;;4956223;28;20548;-70
2022/04/06 08:19:35;;;;;;;;;;;25.80;30.00;;;;;;4959271;28;20200;-74
2022/04/06 08:22:02;;;;;;;;;;;25.80;30.00;;;;;;4964802;28;20370;-75
2022/04/06 08:24:35;;;;;;;;;;;25.80;30.00;;;;;;4967258;28;19938;-73
2022/04/06 08:27:02;;;;;;;;;;;25.80;29.90;;;;;;4965289;28;20355;-66
2022/04/06 08:29:29;;;;;;;;;;;25.90;29.90;;;;;;4977425;28;21521;-72
2022/04/06 08:31:56;;;;;;;;;;;25.80;29.80;;;;;;4972660;28;19922;-75
2022/04/06 08:41:44;;;;;;;;;;;25.90;30.00;;;;;;4967626;28;20416;-68
2022/04/06 08:44:11;;;;;;;;;;;25.90;30.00;;;;;;4973944;28;19934;-68
2022/04/06 08:47:03;;;;;;;;;;;25.90;29.80;;;;;;4968315;28;19926;-71
2022/04/06 08:49:32;;;;;;;;;;;25.90;29.80;;;;;;4964835;28;19943;-72
2022/04/06 08:59:10;;;;;;;;;;;26.00;29.30;;;;;;6047638;23;19909;-73
2022/04/06 09:02:13;;;;;;;;;;;26.00;30.10;;;;;;4939531;28;19923;-74
2022/04/06 09:04:40;;;;;;;;;;;26.00;30.00;;;;;;4932950;28;19938;-74
2022/04/06 09:07:08;;;;;;;;;;;26.00;29.70;;;;;;4953266;28;19927;-70
2022/04/06 09:09:54;;;;;;;;;;;26.00;29.80;;;;;;4956022;28;19926;-69
2022/04/06 09:12:24;;;;;;;;;;;26.00;29.80;;;;;;4957670;28;19948;-74
2022/04/06 09:15:10;;;;;;;;;;;26.00;30.00;;;;;;4958599;28;19927;-73
2022/04/06 09:17:45;;;;;;;;;;;26.00;29.80;;;;;;4935080;28;20468;-74
2022/04/06 09:20:13;;;;;;;;;;;26.10;29.90;;;;;;4934732;28;19923;-69
2022/04/06 09:22:46;;;;;;;;;;;26.10;29.70;;;;;;4933098;29;19927;-69
2022/04/06 09:28:26;;;;;;;;;;;26.10;29.40;;;;;;4936180;29;20374;-70
2022/04/06 09:30:53;;;;;;;;;;;26.00;28.50;;;;;;4922379;29;19927;-71
2022/04/06 09:33:21;;;;;;;;;;;26.00;29.10;;;;;;4940618;29;19931;-65
2022/04/06 09:35:48;;;;;;;;;;;25.90;29.60;;;;;;4939907;28;19996;-68
2022/04/06 09:38:22;;;;;;;;;;;25.90;29.00;;;;;;4937506;28;19927;-67
2022/04/06 09:40:59;;;;;;;;;;;25.90;29.20;;;;;;4913400;28;19935;-65
2022/04/06 09:43:27;;;;;;;;;;;25.90;29.40;;;;;;4932678;28;19997;-66
2022/04/06 09:49:18;;;;;;;;;;;25.90;29.50;;;;;;4929537;28;20101;-70
2022/04/06 09:58:51;;;;;;;;;;;26.00;29.50;;;;;;4894249;28;19975;-73
2022/04/06 10:01:18;;;;;;;;;;;26.00;29.50;;;;;;4883484;28;20030;-64
2022/04/06 10:03:54;;;;;;;;;;;26.00;29.30;;;;;;4898472;28;19974;-71
2022/04/06 10:06:36;;;;;;;;;;;26.00;29.30;;;;;;4889502;28;20007;-68
2022/04/06 10:09:04;;;;;;;;;;;26.10;29.40;;;;;;4889854;28;19936;-73
2022/04/06 10:11:35;;;;;;;;;;;26.10;29.30;;;;;;4898346;28;19986;-66
2022/04/06 10:14:04;;;;;;;;;;;26.10;29.20;;;;;;4898621;28;20416;-71
2022/04/06 10:16:34;;;;;;;;;;;26.10;29.10;;;;;;4880678;28;20261;-67
2022/04/06 10:22:57;;;;;;;;;;;26.20;29.20;;;;;;4895070;28;20461;-67
2022/04/06 10:25:44;;;;;;;;;;;26.20;28.50;;;;;;4884758;28;19935;-68
2022/04/06 10:28:12;;;;;;;;;;;26.10;28.90;;;;;;4904379;28;19934;-72
2022/04/06 10:30:39;;;;;;;;;;;26.20;29.10;;;;;;4895363;28;19976;-67
2022/04/06 10:33:20;;;;;;;;;;;26.20;29.00;;;;;;4895240;28;19931;-65
2022/04/06 10:35:48;;;;;;;;;;;26.20;29.10;;;;;;4889149;28;19943;-73
2022/04/06 10:38:16;;;;;;;;;;;26.20;29.20;;;;;;4889775;28;19963;-72
2022/04/06 10:40:55;;;;;;;;;;;26.20;29.20;;;;;;4884767;28;19930;-72
2022/04/06 10:43:48;;;;;;;;;;;26.20;29.10;;;;;;4887889;28;20014;-71
2022/04/06 10:46:16;;;;;;;;;;;26.20;29.50;;;;;;4880419;28;20463;-67
2022/04/06 10:49:03;;;;;;;;;;;26.20;29.40;;;;;;4886616;28;19974;-69
2022/04/06 10:51:33;;;;;;;;;;;26.20;29.20;;;;;;4883638;29;19927;-67
2022/04/06 10:57:19;;;;;;;;;;;26.30;29.20;;;;;;4886735;28;20330;-67
2022/04/06 11:00:06;;;;;;;;;;;26.30;29.10;;;;;;4882399;28;19939;-72
2022/04/06 11:02:35;;;;;;;;;;;26.30;29.00;;;;;;4876734;28;19983;-70
2022/04/06 11:05:05;;;;;;;;;;;26.30;29.00;;;;;;4881621;28;19942;-65
2022/04/06 11:10:29;;;;;;;;;;;26.30;28.50;;;;;;4897940;28;19940;-65
2022/04/06 11:12:58;;;;;;;;;;;26.30;28.60;;;;;;4871164;28;19966;-71
2022/04/06 11:15:34;;;;;;;;;;;26.30;28.80;;;;;;4874211;28;19936;-68
2022/04/06 11:18:01;;;;;;;;;;;26.40;28.90;;;;;;4882051;28;19936;-67
2022/04/06 11:20:32;;;;;;;;;;;26.40;28.80;;;;;;4873442;28;19927;-68
2022/04/06 11:23:00;;;;;;;;;;;26.40;28.30;;;;;;4876447;28;19932;-70
2022/04/06 11:25:30;;;;;;;;;;;26.40;28.40;;;;;;4884831;28;19990;-66
2022/04/06 11:28:05;;;;;;;;;;;26.40;28.40;;;;;;4875956;28;19986;-72
2022/04/06 11:30:38;;;;;;;;;;;26.40;28.40;;;;;;4871675;28;20281;-73
2022/04/06 11:33:05;;;;;;;;;;;26.50;28.50;;;;;;4879874;28;20344;-72
2022/04/06 11:35:34;;;;;;;;;;;26.50;28.60;;;;;;4882123;28;20532;-72
2022/04/06 11:38:05;;;;;;;;;;;26.50;29.00;;;;;;4884033;28;19971;-73
2022/04/06 11:40:32;;;;;;;;;;;26.50;28.60;;;;;;4871201;28;19994;-72
2022/04/06 11:43:04;;;;;;;;;;;26.50;28.10;;;;;;4880852;28;20793;-78
2022/04/06 11:45:33;;;;;;;;;;;26.50;28.00;;;;;;4882030;28;19934;-77
2022/04/06 11:48:04;;;;;;;;;;;26.40;28.10;;;;;;4877687;28;19957;-77
2022/04/06 11:50:36;;;;;;;;;;;26.40;28.60;;;;;;4882263;28;19936;-72
2022/04/06 11:53:04;;;;;;;;;;;26.40;28.50;;;;;;4871028;28;20583;-78
2022/04/06 11:55:47;;;;;;;;;;;26.40;29.00;;;;;;4882041;28;19927;-74
2022/04/06 11:58:38;;;;;;;;;;;26.40;28.70;;;;;;4908828;28;20450;-70
2022/04/06 12:01:06;;;;;;;;;;;26.40;28.40;;;;;;4887481;28;19950;-67
2022/04/06 12:03:34;;;;;;;;;;;26.40;28.80;;;;;;4904464;28;20293;-68
2022/04/06 12:06:03;;;;;;;;;;;26.30;28.70;;;;;;4893202;28;19965;-72
2022/04/06 12:08:33;;;;;;;;;;;26.30;28.70;;;;;;4892963;28;20002;-68
2022/04/06 12:11:01;;;;;;;;;;;26.30;28.80;;;;;;4889948;29;19927;-73
2022/04/06 12:13:29;;;;;;;;;;;26.30;28.70;;;;;;4888947;28;19959;-72
2022/04/06 12:15:58;;;;;;;;;;;26.30;28.60;;;;;;4899593;29;19975;-74
2022/04/06 12:18:25;;;;;;;;;;;26.30;28.70;;;;;;4893130;28;21459;-73
2022/04/06 12:20:53;;;;;;;;;;;26.20;28.70;;;;;;4895001;28;19942;-69
2022/04/06 12:23:20;;;;;;;;;;;26.20;28.80;;;;;;4887442;29;19923;-69
2022/04/06 12:25:48;;;;;;;;;;;26.20;28.90;;;;;;4889398;29;19923;-67
2022/04/06 12:28:30;;;;;;;;;;;26.20;28.90;;;;;;4889593;28;19959;-74
2022/04/06 12:30:59;;;;;;;;;;;26.10;28.80;;;;;;4915259;29;19930;-67
2022/04/06 12:33:44;;;;;;;;;;;26.10;28.80;;;;;;4887932;29;19935;-73
2022/04/06 12:36:57;;;;;;;;;;;26.10;28.90;;;;;;4894657;28;19982;-70
2022/04/06 12:42:53;;;;;;;;;;;26.10;29.20;;;;;;4890827;28;19978;-75
2022/04/06 12:45:20;;;;;;;;;;;26.10;29.10;;;;;;4899193;29;19958;-74
2022/04/06 12:47:47;;;;;;;;;;;26.10;29.00;;;;;;4898565;29;19927;-76
2022/04/06 12:50:16;;;;;;;;;;;26.20;29.00;;;;;;4884918;29;19936;-77
2022/04/06 12:52:47;;;;;;;;;;;26.20;28.80;;;;;;4898751;28;19931;-67
2022/04/06 12:55:31;;;;;;;;;;;26.10;28.80;;;;;;4897272;29;20018;-67
2022/04/06 12:58:23;;;;;;;;;;;26.10;28.90;;;;;;4864793;28;19924;-68
2022/04/06 13:00:57;;;;;;;;;;;26.10;29.00;;;;;;4865848;29;19923;-63
2022/04/06 13:03:28;;;;;;;;;;;26.20;29.10;;;;;;4843472;29;19991;-63
2022/04/06 13:05:56;;;;;;;;;;;26.20;29.00;;;;;;4868121;28;19994;-68
2022/04/06 13:08:23;;;;;;;;;;;26.20;29.00;;;;;;4868041;29;19931;-65
2022/04/06 13:10:50;;;;;;;;;;;26.20;29.20;;;;;;4866484;29;19932;-67
2022/04/06 13:13:17;;;;;;;;;;;26.20;29.20;;;;;;4866896;29;20396;-68
2022/04/06 13:15:45;;;;;;;;;;;26.20;29.00;;;;;;4871599;29;19927;-68
2022/04/06 13:18:14;;;;;;;;;;;26.20;29.10;;;;;;4868746;29;19936;-66
2022/04/06 13:20:41;;;;;;;;;;;26.20;28.80;;;;;;4871338;29;19939;-65
2022/04/06 13:23:08;;;;;;;;;;;26.20;28.70;;;;;;4870889;29;19995;-70
2022/04/06 13:25:44;;;;;;;;;;;26.20;28.90;;;;;;4855729;29;19932;-70
2022/04/06 13:28:13;;;;;;;;;;;26.20;29.00;;;;;;4866611;29;19936;-70
2022/04/06 13:30:41;;;;;;;;;;;26.20;28.90;;;;;;4872320;29;19932;-70
2022/04/06 13:33:08;;;;;;;;;;;26.30;29.10;;;;;;4867790;29;19932;-69
2022/04/06 13:35:35;;;;;;;;;;;26.30;29.20;;;;;;4871324;28;19936;-69
2022/04/06 13:38:02;;;;;;;;;;;26.20;29.10;;;;;;4866816;29;19935;-75
2022/04/06 13:40:30;;;;;;;;;;;26.20;28.90;;;;;;4866374;29;19928;-70
2022/04/06 13:42:57;;;;;;;;;;;26.20;28.80;;;;;;4871583;28;19971;-65
2022/04/06 13:45:24;;;;;;;;;;;26.20;28.80;;;;;;4870804;28;19971;-70
2022/04/06 13:47:52;;;;;;;;;;;26.20;28.60;;;;;;4872120;28;19939;-66
2022/04/06 13:50:21;;;;;;;;;;;26.20;28.90;;;;;;4872292;29;19983;-70
2022/04/06 13:52:49;;;;;;;;;;;26.20;28.90;;;;;;4871509;29;19934;-70
2022/04/06 13:55:21;;;;;;;;;;;26.20;28.90;;;;;;4868573;29;19935;-71
2022/04/06 13:57:49;;;;;;;;;;;26.20;28.90;;;;;;4869257;29;20420;-65
2022/04/06 14:00:17;;;;;;;;;;;26.20;28.90;;;;;;4879108;28;19970;-69
2022/04/06 14:02:45;;;;;;;;;;;26.20;28.90;;;;;;4872412;28;19987;-72
2022/04/06 14:05:12;;;;;;;;;;;26.20;28.60;;;;;;4862484;29;19939;-71
2022/04/06 14:07:39;;;;;;;;;;;26.20;28.70;;;;;;4860535;29;20023;-71
2022/04/06 14:10:07;;;;;;;;;;;26.20;28.60;;;;;;4871567;29;19939;-71
2022/04/06 14:12:37;;;;;;;;;;;26.20;28.60;;;;;;4851439;29;20017;-70
2022/04/06 14:15:05;;;;;;;;;;;26.20;28.90;;;;;;4876151;28;20340;-66
2022/04/06 14:17:33;;;;;;;;;;;26.20;29.00;;;;;;4867963;29;19939;-69
2022/04/06 14:20:00;;;;;;;;;;;26.20;29.10;;;;;;4873064;28;20438;-68
2022/04/06 14:22:27;;;;;;;;;;;26.20;29.60;;;;;;4870654;28;19952;-69
2022/04/06 14:27:44;;;;;;;;;;;26.20;29.60;;;;;;4873994;28;20293;-72
2022/04/06 14:30:11;;;;;;;;;;;26.20;29.00;;;;;;4887297;28;19935;-71
2022/04/06 14:32:40;;;;;;;;;;;26.20;28.90;;;;;;4867525;29;19927;-72
2022/04/06 14:35:07;;;;;;;;;;;26.20;29.00;;;;;;4869389;29;20058;-72
2022/04/06 14:37:34;;;;;;;;;;;26.20;29.00;;;;;;4867052;29;19928;-71
2022/04/06 14:40:03;;;;;;;;;;;26.20;29.00;;;;;;4871090;29;20380;-71
2022/04/06 14:42:30;;;;;;;;;;;26.20;29.00;;;;;;4874704;28;19928;-70
2022/04/06 14:44:57;;;;;;;;;;;26.20;29.00;;;;;;4870507;29;19928;-71
2022/04/06 14:47:25;;;;;;;;;;;26.20;29.00;;;;;;4872203;29;19928;-70
2022/04/06 14:49:52;;;;;;;;;;;26.20;28.90;;;;;;4873598;29;20225;-76
2022/04/06 14:52:20;;;;;;;;;;;26.20;28.80;;;;;;4873878;29;19936;-71
2022/04/06 14:54:47;;;;;;;;;;;26.20;28.80;;;;;;4873693;29;19935;-73
2022/04/06 14:57:14;;;;;;;;;;;26.20;28.90;;;;;;4881904;28;19978;-73
2022/04/06 14:59:41;;;;;;;;;;;26.20;29.00;;;;;;4893163;29;20053;-73
2022/04/06 15:02:11;;;;;;;;;;;26.30;29.10;;;;;;4891257;29;19931;-73
2022/04/06 15:04:39;;;;;;;;;;;26.20;29.30;;;;;;4893343;29;19963;-72
2022/04/06 15:07:06;;;;;;;;;;;26.30;29.60;;;;;;4908063;29;19927;-72
2022/04/06 15:09:34;;;;;;;;;;;26.20;29.60;;;;;;4888311;29;19953;-72
2022/04/06 15:12:01;;;;;;;;;;;26.20;29.70;;;;;;4893118;29;20206;-72
2022/04/06 15:14:28;;;;;;;;;;;26.30;29.80;;;;;;4893103;29;19928;-72
2022/04/06 15:16:55;;;;;;;;;;;26.30;29.90;;;;;;4893265;29;19970;-72